sensor_id;sensor_type;location;lat;lon;timestamp;P1;durP1;ratioP1;P2;durP2;ratioP2
26319;SDS011;14024;52.226;5.200;2024-01-30T00:02:07;26.08;;;14.43;;
26319;SDS011;14024;52.226;5.200;2024-01-30T00:04:33;24.45;;;14.55;;
26319;SDS011;14024;52.226;5.200;2024-01-30T00:06:58;30.85;;;15.27;;
26319;SDS011;14024;52.226;5.200;2024-01-30T00:09:23;27.63;;;14.95;;
26319;SDS011;14024;52.226;5.200;2024-01-30T00:11:48;24.65;;;14.70;;
26319;SDS011;14024;52.226;5.200;2024-01-30T00:14:14;25.23;;;13.75;;
26319;SDS011;14024;52.226;5.200;2024-01-30T00:16:39;22.95;;;13.73;;
26319;SDS011;14024;52.226;5.200;2024-01-30T00:19:04;30.67;;;14.52;;
26319;SDS011;14024;52.226;5.200;2024-01-30T00:21:30;22.10;;;13.60;;
26319;SDS011;14024;52.226;5.200;2024-01-30T00:23:55;22.77;;;12.95;;
26319;SDS011;14024;52.226;5.200;2024-01-30T00:26:20;23.85;;;14.07;;
26319;SDS011;14024;52.226;5.200;2024-01-30T00:28:46;23.23;;;13.32;;
26319;SDS011;14024;52.226;5.200;2024-01-30T00:31:11;23.23;;;14.20;;
26319;SDS011;14024;52.226;5.200;2024-01-30T00:33:40;24.15;;;13.82;;
26319;SDS011;14024;52.226;5.200;2024-01-30T00:36:05;24.35;;;15.25;;
26319;SDS011;14024;52.226;5.200;2024-01-30T00:38:32;20.60;;;13.15;;
26319;SDS011;14024;52.226;5.200;2024-01-30T00:40:57;26.08;;;13.55;;
26319;SDS011;14024;52.226;5.200;2024-01-30T00:43:23;26.02;;;14.75;;
26319;SDS011;14024;52.226;5.200;2024-01-30T00:45:49;24.45;;;13.20;;
26319;SDS011;14024;52.226;5.200;2024-01-30T00:48:17;24.52;;;14.18;;
26319;SDS011;14024;52.226;5.200;2024-01-30T00:50:42;24.27;;;15.00;;
26319;SDS011;14024;52.226;5.200;2024-01-30T00:53:07;22.92;;;14.07;;
26319;SDS011;14024;52.226;5.200;2024-01-30T00:55:33;25.55;;;14.68;;
26319;SDS011;14024;52.226;5.200;2024-01-30T00:57:58;26.50;;;14.23;;
26319;SDS011;14024;52.226;5.200;2024-01-30T01:00:23;23.25;;;13.52;;
26319;SDS011;14024;52.226;5.200;2024-01-30T01:02:53;22.23;;;13.73;;
26319;SDS011;14024;52.226;5.200;2024-01-30T01:05:19;26.92;;;13.52;;
26319;SDS011;14024;52.226;5.200;2024-01-30T01:07:44;23.25;;;11.90;;
26319;SDS011;14024;52.226;5.200;2024-01-30T01:10:12;25.48;;;12.60;;
26319;SDS011;14024;52.226;5.200;2024-01-30T01:12:38;21.73;;;13.25;;
26319;SDS011;14024;52.226;5.200;2024-01-30T01:15:04;20.75;;;13.05;;
26319;SDS011;14024;52.226;5.200;2024-01-30T01:17:30;24.90;;;13.68;;
26319;SDS011;14024;52.226;5.200;2024-01-30T01:19:56;24.60;;;13.32;;
26319;SDS011;14024;52.226;5.200;2024-01-30T01:22:22;22.17;;;12.75;;
26319;SDS011;14024;52.226;5.200;2024-01-30T01:24:47;29.90;;;13.60;;
26319;SDS011;14024;52.226;5.200;2024-01-30T01:27:13;20.65;;;12.68;;
26319;SDS011;14024;52.226;5.200;2024-01-30T01:29:38;25.23;;;13.07;;
26319;SDS011;14024;52.226;5.200;2024-01-30T01:32:04;20.77;;;12.07;;
26319;SDS011;14024;52.226;5.200;2024-01-30T01:34:29;21.55;;;11.95;;
26319;SDS011;14024;52.226;5.200;2024-01-30T01:36:55;18.20;;;11.43;;
26319;SDS011;14024;52.226;5.200;2024-01-30T01:39:20;20.52;;;11.85;;
26319;SDS011;14024;52.226;5.200;2024-01-30T01:41:47;21.17;;;12.25;;
26319;SDS011;14024;52.226;5.200;2024-01-30T01:44:13;27.70;;;13.18;;
26319;SDS011;14024;52.226;5.200;2024-01-30T01:46:38;23.20;;;12.32;;
26319;SDS011;14024;52.226;5.200;2024-01-30T01:49:06;17.05;;;10.55;;
26319;SDS011;14024;52.226;5.200;2024-01-30T01:51:33;18.75;;;11.70;;
26319;SDS011;14024;52.226;5.200;2024-01-30T01:54:02;17.70;;;10.93;;
26319;SDS011;14024;52.226;5.200;2024-01-30T01:56:29;21.75;;;11.27;;
26319;SDS011;14024;52.226;5.200;2024-01-30T01:58:55;23.15;;;11.35;;
26319;SDS011;14024;52.226;5.200;2024-01-30T02:01:25;16.45;;;10.40;;
26319;SDS011;14024;52.226;5.200;2024-01-30T02:03:52;18.42;;;10.63;;
26319;SDS011;14024;52.226;5.200;2024-01-30T02:06:18;18.52;;;11.20;;
26319;SDS011;14024;52.226;5.200;2024-01-30T02:08:43;19.88;;;11.07;;
26319;SDS011;14024;52.226;5.200;2024-01-30T02:11:09;17.73;;;11.27;;
26319;SDS011;14024;52.226;5.200;2024-01-30T02:13:35;22.13;;;12.73;;
26319;SDS011;14024;52.226;5.200;2024-01-30T02:16:01;22.38;;;11.77;;
26319;SDS011;14024;52.226;5.200;2024-01-30T02:18:26;17.23;;;10.60;;
26319;SDS011;14024;52.226;5.200;2024-01-30T02:20:53;21.63;;;11.02;;
26319;SDS011;14024;52.226;5.200;2024-01-30T02:23:21;20.90;;;12.18;;
26319;SDS011;14024;52.226;5.200;2024-01-30T02:25:49;21.65;;;12.57;;
26319;SDS011;14024;52.226;5.200;2024-01-30T02:28:14;20.05;;;11.35;;
26319;SDS011;14024;52.226;5.200;2024-01-30T02:30:42;21.38;;;10.82;;
26319;SDS011;14024;52.226;5.200;2024-01-30T02:33:08;28.73;;;12.95;;
26319;SDS011;14024;52.226;5.200;2024-01-30T02:35:33;20.05;;;11.57;;
26319;SDS011;14024;52.226;5.200;2024-01-30T02:37:59;21.05;;;12.48;;
26319;SDS011;14024;52.226;5.200;2024-01-30T02:40:25;21.92;;;11.73;;
26319;SDS011;14024;52.226;5.200;2024-01-30T02:42:51;22.90;;;12.52;;
26319;SDS011;14024;52.226;5.200;2024-01-30T02:45:16;20.30;;;10.68;;
26319;SDS011;14024;52.226;5.200;2024-01-30T02:47:42;20.80;;;10.77;;
26319;SDS011;14024;52.226;5.200;2024-01-30T02:50:07;21.25;;;12.68;;
26319;SDS011;14024;52.226;5.200;2024-01-30T02:52:33;25.23;;;11.77;;
26319;SDS011;14024;52.226;5.200;2024-01-30T02:54:58;19.33;;;11.68;;
26319;SDS011;14024;52.226;5.200;2024-01-30T02:57:24;19.75;;;11.38;;
26319;SDS011;14024;52.226;5.200;2024-01-30T02:59:49;20.13;;;11.40;;
26319;SDS011;14024;52.226;5.200;2024-01-30T03:02:15;18.17;;;11.00;;
26319;SDS011;14024;52.226;5.200;2024-01-30T03:04:40;16.60;;;11.43;;
26319;SDS011;14024;52.226;5.200;2024-01-30T03:07:06;18.52;;;10.80;;
26319;SDS011;14024;52.226;5.200;2024-01-30T03:09:31;21.63;;;11.30;;
26319;SDS011;14024;52.226;5.200;2024-01-30T03:11:57;21.60;;;12.57;;
26319;SDS011;14024;52.226;5.200;2024-01-30T03:14:22;25.02;;;13.02;;
26319;SDS011;14024;52.226;5.200;2024-01-30T03:16:47;21.63;;;12.68;;
26319;SDS011;14024;52.226;5.200;2024-01-30T03:19:13;22.05;;;10.73;;
26319;SDS011;14024;52.226;5.200;2024-01-30T03:21:38;21.08;;;11.30;;
26319;SDS011;14024;52.226;5.200;2024-01-30T03:24:04;20.95;;;12.00;;
26319;SDS011;14024;52.226;5.200;2024-01-30T03:26:29;21.98;;;10.50;;
26319;SDS011;14024;52.226;5.200;2024-01-30T03:28:54;24.25;;;12.05;;
26319;SDS011;14024;52.226;5.200;2024-01-30T03:31:20;20.90;;;11.80;;
26319;SDS011;14024;52.226;5.200;2024-01-30T03:33:45;21.85;;;11.70;;
26319;SDS011;14024;52.226;5.200;2024-01-30T03:36:10;16.65;;;10.18;;
26319;SDS011;14024;52.226;5.200;2024-01-30T03:38:36;17.60;;;10.98;;
26319;SDS011;14024;52.226;5.200;2024-01-30T03:41:01;19.00;;;11.60;;
26319;SDS011;14024;52.226;5.200;2024-01-30T03:43:26;19.55;;;12.45;;
26319;SDS011;14024;52.226;5.200;2024-01-30T03:45:52;19.67;;;11.27;;
26319;SDS011;14024;52.226;5.200;2024-01-30T03:48:17;17.75;;;9.77;;
26319;SDS011;14024;52.226;5.200;2024-01-30T03:50:43;19.33;;;13.13;;
26319;SDS011;14024;52.226;5.200;2024-01-30T03:53:08;22.85;;;12.23;;
26319;SDS011;14024;52.226;5.200;2024-01-30T03:55:34;21.50;;;11.50;;
26319;SDS011;14024;52.226;5.200;2024-01-30T03:57:59;17.98;;;11.35;;
26319;SDS011;14024;52.226;5.200;2024-01-30T04:00:25;18.27;;;10.75;;
26319;SDS011;14024;52.226;5.200;2024-01-30T04:02:50;17.92;;;10.60;;
26319;SDS011;14024;52.226;5.200;2024-01-30T04:05:16;19.55;;;10.55;;
26319;SDS011;14024;52.226;5.200;2024-01-30T04:07:41;23.77;;;12.82;;
26319;SDS011;14024;52.226;5.200;2024-01-30T04:10:07;19.90;;;12.40;;
26319;SDS011;14024;52.226;5.200;2024-01-30T04:12:33;19.88;;;11.63;;
26319;SDS011;14024;52.226;5.200;2024-01-30T04:14:58;18.33;;;11.75;;
26319;SDS011;14024;52.226;5.200;2024-01-30T04:17:24;17.08;;;10.48;;
26319;SDS011;14024;52.226;5.200;2024-01-30T04:19:49;19.30;;;12.02;;
26319;SDS011;14024;52.226;5.200;2024-01-30T04:22:14;22.23;;;12.13;;
26319;SDS011;14024;52.226;5.200;2024-01-30T04:24:39;20.45;;;11.52;;
26319;SDS011;14024;52.226;5.200;2024-01-30T04:27:05;23.42;;;13.32;;
26319;SDS011;14024;52.226;5.200;2024-01-30T04:29:30;21.92;;;12.75;;
26319;SDS011;14024;52.226;5.200;2024-01-30T04:31:57;27.50;;;13.20;;
26319;SDS011;14024;52.226;5.200;2024-01-30T04:34:22;26.23;;;12.68;;
26319;SDS011;14024;52.226;5.200;2024-01-30T04:36:48;23.00;;;13.30;;
26319;SDS011;14024;52.226;5.200;2024-01-30T04:39:13;22.52;;;11.45;;
26319;SDS011;14024;52.226;5.200;2024-01-30T04:41:38;27.50;;;14.32;;
26319;SDS011;14024;52.226;5.200;2024-01-30T04:44:04;25.55;;;13.52;;
26319;SDS011;14024;52.226;5.200;2024-01-30T04:46:30;21.20;;;12.05;;
26319;SDS011;14024;52.226;5.200;2024-01-30T04:48:55;24.42;;;12.35;;
26319;SDS011;14024;52.226;5.200;2024-01-30T04:51:20;26.42;;;14.40;;
26319;SDS011;14024;52.226;5.200;2024-01-30T04:53:46;20.48;;;12.40;;
26319;SDS011;14024;52.226;5.200;2024-01-30T04:56:11;23.98;;;14.63;;
26319;SDS011;14024;52.226;5.200;2024-01-30T04:58:36;26.52;;;15.15;;
26319;SDS011;14024;52.226;5.200;2024-01-30T05:01:02;24.50;;;13.95;;
26319;SDS011;14024;52.226;5.200;2024-01-30T05:03:27;26.25;;;13.32;;
26319;SDS011;14024;52.226;5.200;2024-01-30T05:05:53;26.02;;;13.73;;
26319;SDS011;14024;52.226;5.200;2024-01-30T05:08:18;26.63;;;13.20;;
26319;SDS011;14024;52.226;5.200;2024-01-30T05:10:43;23.65;;;14.27;;
26319;SDS011;14024;52.226;5.200;2024-01-30T05:13:09;26.00;;;13.57;;
26319;SDS011;14024;52.226;5.200;2024-01-30T05:15:35;25.98;;;14.18;;
26319;SDS011;14024;52.226;5.200;2024-01-30T05:18:00;26.63;;;13.70;;
26319;SDS011;14024;52.226;5.200;2024-01-30T05:20:25;25.40;;;13.43;;
26319;SDS011;14024;52.226;5.200;2024-01-30T05:22:53;24.67;;;13.25;;
26319;SDS011;14024;52.226;5.200;2024-01-30T05:25:18;25.98;;;14.27;;
26319;SDS011;14024;52.226;5.200;2024-01-30T05:27:44;23.98;;;13.02;;
26319;SDS011;14024;52.226;5.200;2024-01-30T05:30:09;25.23;;;13.20;;
26319;SDS011;14024;52.226;5.200;2024-01-30T05:32:35;25.40;;;13.02;;
26319;SDS011;14024;52.226;5.200;2024-01-30T05:35:00;24.88;;;14.38;;
26319;SDS011;14024;52.226;5.200;2024-01-30T05:37:26;21.85;;;13.02;;
26319;SDS011;14024;52.226;5.200;2024-01-30T05:39:51;25.90;;;12.82;;
26319;SDS011;14024;52.226;5.200;2024-01-30T05:42:16;22.13;;;12.63;;
26319;SDS011;14024;52.226;5.200;2024-01-30T05:44:42;23.25;;;12.93;;
26319;SDS011;14024;52.226;5.200;2024-01-30T05:47:07;25.70;;;13.07;;
26319;SDS011;14024;52.226;5.200;2024-01-30T05:49:33;24.65;;;13.13;;
26319;SDS011;14024;52.226;5.200;2024-01-30T05:51:58;24.27;;;12.50;;
26319;SDS011;14024;52.226;5.200;2024-01-30T05:54:23;22.42;;;12.25;;
26319;SDS011;14024;52.226;5.200;2024-01-30T05:56:49;24.45;;;13.23;;
26319;SDS011;14024;52.226;5.200;2024-01-30T05:59:14;24.65;;;13.20;;
26319;SDS011;14024;52.226;5.200;2024-01-30T06:01:45;23.67;;;13.32;;
26319;SDS011;14024;52.226;5.200;2024-01-30T06:04:14;24.90;;;13.35;;
26319;SDS011;14024;52.226;5.200;2024-01-30T06:06:39;22.15;;;11.93;;
26319;SDS011;14024;52.226;5.200;2024-01-30T06:09:05;22.70;;;13.98;;
26319;SDS011;14024;52.226;5.200;2024-01-30T06:11:30;23.05;;;12.65;;
26319;SDS011;14024;52.226;5.200;2024-01-30T06:13:56;24.33;;;14.00;;
26319;SDS011;14024;52.226;5.200;2024-01-30T06:16:21;23.33;;;11.88;;
26319;SDS011;14024;52.226;5.200;2024-01-30T06:18:47;28.38;;;13.98;;
26319;SDS011;14024;52.226;5.200;2024-01-30T06:21:13;26.48;;;12.80;;
26319;SDS011;14024;52.226;5.200;2024-01-30T06:23:38;25.77;;;12.48;;
26319;SDS011;14024;52.226;5.200;2024-01-30T06:26:04;24.15;;;11.93;;
26319;SDS011;14024;52.226;5.200;2024-01-30T06:28:31;21.70;;;12.75;;
26319;SDS011;14024;52.226;5.200;2024-01-30T06:30:57;21.85;;;12.60;;
26319;SDS011;14024;52.226;5.200;2024-01-30T06:33:22;32.88;;;13.98;;
26319;SDS011;14024;52.226;5.200;2024-01-30T06:35:47;24.75;;;13.13;;
26319;SDS011;14024;52.226;5.200;2024-01-30T06:38:13;31.63;;;13.55;;
26319;SDS011;14024;52.226;5.200;2024-01-30T06:40:40;27.45;;;13.57;;
26319;SDS011;14024;52.226;5.200;2024-01-30T06:43:06;21.35;;;12.15;;
26319;SDS011;14024;52.226;5.200;2024-01-30T06:45:32;22.55;;;12.82;;
26319;SDS011;14024;52.226;5.200;2024-01-30T06:47:59;29.60;;;13.35;;
26319;SDS011;14024;52.226;5.200;2024-01-30T06:50:25;25.50;;;12.90;;
26319;SDS011;14024;52.226;5.200;2024-01-30T06:52:50;23.05;;;12.27;;
26319;SDS011;14024;52.226;5.200;2024-01-30T06:55:15;26.23;;;12.55;;
26319;SDS011;14024;52.226;5.200;2024-01-30T06:57:41;21.50;;;12.43;;
26319;SDS011;14024;52.226;5.200;2024-01-30T07:00:06;24.92;;;13.10;;
26319;SDS011;14024;52.226;5.200;2024-01-30T07:02:32;22.58;;;13.18;;
26319;SDS011;14024;52.226;5.200;2024-01-30T07:04:58;22.70;;;12.43;;
26319;SDS011;14024;52.226;5.200;2024-01-30T07:07:25;27.13;;;13.63;;
26319;SDS011;14024;52.226;5.200;2024-01-30T07:09:50;20.48;;;12.68;;
26319;SDS011;14024;52.226;5.200;2024-01-30T07:12:21;22.05;;;11.98;;
26319;SDS011;14024;52.226;5.200;2024-01-30T07:14:49;30.38;;;12.98;;
26319;SDS011;14024;52.226;5.200;2024-01-30T07:17:16;23.55;;;12.55;;
26319;SDS011;14024;52.226;5.200;2024-01-30T07:19:41;21.33;;;12.93;;
26319;SDS011;14024;52.226;5.200;2024-01-30T07:22:07;26.98;;;12.68;;
26319;SDS011;14024;52.226;5.200;2024-01-30T07:24:33;21.88;;;12.55;;
26319;SDS011;14024;52.226;5.200;2024-01-30T07:26:58;25.20;;;13.45;;
26319;SDS011;14024;52.226;5.200;2024-01-30T07:29:23;26.17;;;13.13;;
26319;SDS011;14024;52.226;5.200;2024-01-30T07:31:49;26.85;;;13.30;;
26319;SDS011;14024;52.226;5.200;2024-01-30T07:34:15;25.23;;;13.70;;
26319;SDS011;14024;52.226;5.200;2024-01-30T07:36:40;24.23;;;13.27;;
26319;SDS011;14024;52.226;5.200;2024-01-30T07:39:05;23.80;;;13.73;;
26319;SDS011;14024;52.226;5.200;2024-01-30T07:41:31;32.05;;;13.50;;
26319;SDS011;14024;52.226;5.200;2024-01-30T07:43:56;28.33;;;12.73;;
26319;SDS011;14024;52.226;5.200;2024-01-30T07:46:22;25.70;;;13.73;;
26319;SDS011;14024;52.226;5.200;2024-01-30T07:48:47;28.30;;;14.15;;
26319;SDS011;14024;52.226;5.200;2024-01-30T07:51:13;30.02;;;13.70;;
26319;SDS011;14024;52.226;5.200;2024-01-30T07:53:38;29.30;;;14.02;;
26319;SDS011;14024;52.226;5.200;2024-01-30T07:56:05;33.78;;;14.07;;
26319;SDS011;14024;52.226;5.200;2024-01-30T07:58:32;27.13;;;12.90;;
26319;SDS011;14024;52.226;5.200;2024-01-30T08:00:58;31.10;;;13.93;;
26319;SDS011;14024;52.226;5.200;2024-01-30T08:03:25;26.33;;;13.07;;
26319;SDS011;14024;52.226;5.200;2024-01-30T08:05:50;29.73;;;13.13;;
26319;SDS011;14024;52.226;5.200;2024-01-30T08:08:16;27.65;;;13.98;;
26319;SDS011;14024;52.226;5.200;2024-01-30T08:10:41;26.23;;;12.93;;
26319;SDS011;14024;52.226;5.200;2024-01-30T08:13:06;32.47;;;13.40;;
26319;SDS011;14024;52.226;5.200;2024-01-30T08:15:33;31.40;;;13.32;;
26319;SDS011;14024;52.226;5.200;2024-01-30T08:17:59;34.53;;;13.20;;
26319;SDS011;14024;52.226;5.200;2024-01-30T08:20:24;25.88;;;12.63;;
26319;SDS011;14024;52.226;5.200;2024-01-30T08:22:50;25.48;;;12.57;;
26319;SDS011;14024;52.226;5.200;2024-01-30T08:25:16;29.40;;;13.07;;
26319;SDS011;14024;52.226;5.200;2024-01-30T08:27:41;23.88;;;12.32;;
26319;SDS011;14024;52.226;5.200;2024-01-30T08:30:07;23.17;;;12.70;;
26319;SDS011;14024;52.226;5.200;2024-01-30T08:32:32;28.08;;;13.15;;
26319;SDS011;14024;52.226;5.200;2024-01-30T08:34:58;30.48;;;13.82;;
26319;SDS011;14024;52.226;5.200;2024-01-30T08:37:24;28.17;;;13.23;;
26319;SDS011;14024;52.226;5.200;2024-01-30T08:39:49;34.20;;;12.75;;
26319;SDS011;14024;52.226;5.200;2024-01-30T08:42:15;34.63;;;13.23;;
26319;SDS011;14024;52.226;5.200;2024-01-30T08:44:42;24.60;;;12.90;;
26319;SDS011;14024;52.226;5.200;2024-01-30T08:47:07;29.60;;;13.85;;
26319;SDS011;14024;52.226;5.200;2024-01-30T08:49:32;29.83;;;13.90;;
26319;SDS011;14024;52.226;5.200;2024-01-30T08:51:58;27.52;;;12.23;;
26319;SDS011;14024;52.226;5.200;2024-01-30T08:54:23;26.05;;;13.20;;
26319;SDS011;14024;52.226;5.200;2024-01-30T08:56:49;29.73;;;14.60;;
26319;SDS011;14024;52.226;5.200;2024-01-30T08:59:14;27.15;;;12.20;;
26319;SDS011;14024;52.226;5.200;2024-01-30T09:01:40;28.45;;;13.23;;
26319;SDS011;14024;52.226;5.200;2024-01-30T09:04:05;28.35;;;13.00;;
26319;SDS011;14024;52.226;5.200;2024-01-30T09:06:30;29.95;;;14.23;;
26319;SDS011;14024;52.226;5.200;2024-01-30T09:08:56;27.02;;;14.18;;
26319;SDS011;14024;52.226;5.200;2024-01-30T09:11:23;25.70;;;12.93;;
26319;SDS011;14024;52.226;5.200;2024-01-30T09:13:48;24.92;;;12.50;;
26319;SDS011;14024;52.226;5.200;2024-01-30T09:16:14;28.88;;;13.18;;
26319;SDS011;14024;52.226;5.200;2024-01-30T09:18:41;30.50;;;15.00;;
26319;SDS011;14024;52.226;5.200;2024-01-30T09:21:06;28.10;;;14.00;;
26319;SDS011;14024;52.226;5.200;2024-01-30T09:23:31;27.75;;;13.65;;
26319;SDS011;14024;52.226;5.200;2024-01-30T09:25:57;29.92;;;14.13;;
26319;SDS011;14024;52.226;5.200;2024-01-30T09:28:22;27.92;;;13.93;;
26319;SDS011;14024;52.226;5.200;2024-01-30T09:30:48;27.35;;;13.38;;
26319;SDS011;14024;52.226;5.200;2024-01-30T09:33:13;29.42;;;13.70;;
26319;SDS011;14024;52.226;5.200;2024-01-30T09:35:39;29.02;;;14.40;;
26319;SDS011;14024;52.226;5.200;2024-01-30T09:38:04;28.55;;;13.20;;
26319;SDS011;14024;52.226;5.200;2024-01-30T09:40:30;29.60;;;13.73;;
26319;SDS011;14024;52.226;5.200;2024-01-30T09:42:55;25.35;;;13.40;;
26319;SDS011;14024;52.226;5.200;2024-01-30T09:45:23;30.88;;;13.68;;
26319;SDS011;14024;52.226;5.200;2024-01-30T09:47:49;30.75;;;13.70;;
26319;SDS011;14024;52.226;5.200;2024-01-30T09:50:15;28.98;;;13.30;;
26319;SDS011;14024;52.226;5.200;2024-01-30T09:52:42;31.23;;;13.65;;
26319;SDS011;14024;52.226;5.200;2024-01-30T09:55:09;24.60;;;13.85;;
26319;SDS011;14024;52.226;5.200;2024-01-30T09:57:34;29.13;;;13.57;;
26319;SDS011;14024;52.226;5.200;2024-01-30T10:00:00;31.65;;;12.65;;
26319;SDS011;14024;52.226;5.200;2024-01-30T10:02:26;27.38;;;13.57;;
26319;SDS011;14024;52.226;5.200;2024-01-30T10:04:52;27.52;;;13.82;;
26319;SDS011;14024;52.226;5.200;2024-01-30T10:07:17;32.05;;;15.07;;
26319;SDS011;14024;52.226;5.200;2024-01-30T10:09:46;28.63;;;13.85;;
26319;SDS011;14024;52.226;5.200;2024-01-30T10:12:12;29.15;;;14.13;;
26319;SDS011;14024;52.226;5.200;2024-01-30T10:14:41;30.27;;;14.23;;
26319;SDS011;14024;52.226;5.200;2024-01-30T10:17:08;34.33;;;14.77;;
26319;SDS011;14024;52.226;5.200;2024-01-30T10:19:40;24.27;;;13.77;;
26319;SDS011;14024;52.226;5.200;2024-01-30T10:22:06;22.40;;;13.93;;
26319;SDS011;14024;52.226;5.200;2024-01-30T10:24:35;31.83;;;14.15;;
26319;SDS011;14024;52.226;5.200;2024-01-30T10:27:01;28.42;;;13.55;;
26319;SDS011;14024;52.226;5.200;2024-01-30T10:29:27;36.65;;;14.05;;
26319;SDS011;14024;52.226;5.200;2024-01-30T10:32:02;31.65;;;14.13;;
26319;SDS011;14024;52.226;5.200;2024-01-30T10:34:29;24.45;;;13.75;;
26319;SDS011;14024;52.226;5.200;2024-01-30T10:39:42;30.75;;;13.32;;
26319;SDS011;14024;52.226;5.200;2024-01-30T10:42:12;21.65;;;12.55;;
26319;SDS011;14024;52.226;5.200;2024-01-30T10:47:12;25.80;;;11.52;;
26319;SDS011;14024;52.226;5.200;2024-01-30T10:49:39;28.13;;;12.43;;
26319;SDS011;14024;52.226;5.200;2024-01-30T10:52:07;21.40;;;10.30;;
26319;SDS011;14024;52.226;5.200;2024-01-30T10:54:34;25.70;;;10.75;;
26319;SDS011;14024;52.226;5.200;2024-01-30T10:57:03;22.67;;;9.32;;
26319;SDS011;14024;52.226;5.200;2024-01-30T10:59:30;24.38;;;9.82;;
26319;SDS011;14024;52.226;5.200;2024-01-30T11:01:58;22.80;;;9.80;;
26319;SDS011;14024;52.226;5.200;2024-01-30T11:04:24;21.88;;;9.95;;
26319;SDS011;14024;52.226;5.200;2024-01-30T11:06:50;21.33;;;7.60;;
26319;SDS011;14024;52.226;5.200;2024-01-30T11:09:17;18.60;;;6.55;;
26319;SDS011;14024;52.226;5.200;2024-01-30T11:11:55;14.90;;;5.97;;
26319;SDS011;14024;52.226;5.200;2024-01-30T11:14:28;11.73;;;5.13;;
26319;SDS011;14024;52.226;5.200;2024-01-30T11:16:57;14.77;;;5.32;;
26319;SDS011;14024;52.226;5.200;2024-01-30T11:19:24;17.23;;;5.57;;
26319;SDS011;14024;52.226;5.200;2024-01-30T11:21:51;14.77;;;5.28;;
26319;SDS011;14024;52.226;5.200;2024-01-30T11:24:19;11.32;;;4.85;;
26319;SDS011;14024;52.226;5.200;2024-01-30T11:26:49;17.30;;;5.63;;
26319;SDS011;14024;52.226;5.200;2024-01-30T11:29:16;13.73;;;5.28;;
26319;SDS011;14024;52.226;5.200;2024-01-30T11:31:53;11.70;;;5.45;;
26319;SDS011;14024;52.226;5.200;2024-01-30T11:34:19;11.35;;;5.32;;
26319;SDS011;14024;52.226;5.200;2024-01-30T11:36:47;13.35;;;5.65;;
26319;SDS011;14024;52.226;5.200;2024-01-30T11:39:18;10.95;;;5.68;;
26319;SDS011;14024;52.226;5.200;2024-01-30T11:41:45;10.93;;;5.63;;
26319;SDS011;14024;52.226;5.200;2024-01-30T11:44:11;19.98;;;5.40;;
26319;SDS011;14024;52.226;5.200;2024-01-30T11:46:36;11.88;;;4.53;;
26319;SDS011;14024;52.226;5.200;2024-01-30T11:49:01;10.73;;;4.68;;
26319;SDS011;14024;52.226;5.200;2024-01-30T11:51:27;10.80;;;5.20;;
26319;SDS011;14024;52.226;5.200;2024-01-30T11:53:53;9.70;;;4.50;;
26319;SDS011;14024;52.226;5.200;2024-01-30T11:56:18;12.15;;;4.97;;
26319;SDS011;14024;52.226;5.200;2024-01-30T11:58:43;13.40;;;4.57;;
26319;SDS011;14024;52.226;5.200;2024-01-30T12:01:10;9.82;;;4.97;;
26319;SDS011;14024;52.226;5.200;2024-01-30T12:03:36;8.30;;;3.92;;
26319;SDS011;14024;52.226;5.200;2024-01-30T12:06:02;9.00;;;4.15;;
26319;SDS011;14024;52.226;5.200;2024-01-30T12:08:28;8.45;;;3.60;;
26319;SDS011;14024;52.226;5.200;2024-01-30T12:10:56;7.78;;;2.90;;
26319;SDS011;14024;52.226;5.200;2024-01-30T12:13:23;11.07;;;3.17;;
26319;SDS011;14024;52.226;5.200;2024-01-30T12:15:48;13.60;;;3.22;;
26319;SDS011;14024;52.226;5.200;2024-01-30T12:18:14;8.15;;;3.78;;
26319;SDS011;14024;52.226;5.200;2024-01-30T12:20:44;10.05;;;3.08;;
26319;SDS011;14024;52.226;5.200;2024-01-30T12:23:09;12.32;;;3.58;;
26319;SDS011;14024;52.226;5.200;2024-01-30T12:25:37;12.30;;;2.67;;
26319;SDS011;14024;52.226;5.200;2024-01-30T12:28:03;7.47;;;2.60;;
26319;SDS011;14024;52.226;5.200;2024-01-30T12:30:29;12.90;;;2.58;;
26319;SDS011;14024;52.226;5.200;2024-01-30T12:33:02;13.03;;;3.87;;
26319;SDS011;14024;52.226;5.200;2024-01-30T12:35:29;9.52;;;3.17;;
26319;SDS011;14024;52.226;5.200;2024-01-30T12:37:54;9.57;;;2.67;;
26319;SDS011;14024;52.226;5.200;2024-01-30T12:40:20;11.10;;;2.80;;
26319;SDS011;14024;52.226;5.200;2024-01-30T12:42:46;9.13;;;2.13;;
26319;SDS011;14024;52.226;5.200;2024-01-30T12:45:15;9.27;;;2.60;;
26319;SDS011;14024;52.226;5.200;2024-01-30T12:47:41;10.70;;;2.67;;
26319;SDS011;14024;52.226;5.200;2024-01-30T12:50:06;8.18;;;2.75;;
26319;SDS011;14024;52.226;5.200;2024-01-30T12:52:32;9.80;;;2.85;;
26319;SDS011;14024;52.226;5.200;2024-01-30T12:54:57;9.60;;;2.80;;
26319;SDS011;14024;52.226;5.200;2024-01-30T12:57:23;8.32;;;3.10;;
26319;SDS011;14024;52.226;5.200;2024-01-30T12:59:48;8.60;;;2.92;;
26319;SDS011;14024;52.226;5.200;2024-01-30T13:02:13;10.07;;;2.70;;
26319;SDS011;14024;52.226;5.200;2024-01-30T13:04:40;10.80;;;3.35;;
26319;SDS011;14024;52.226;5.200;2024-01-30T13:07:05;11.02;;;2.78;;
26319;SDS011;14024;52.226;5.200;2024-01-30T13:09:31;8.00;;;3.40;;
26319;SDS011;14024;52.226;5.200;2024-01-30T13:11:57;9.32;;;3.47;;
26319;SDS011;14024;52.226;5.200;2024-01-30T13:14:23;8.40;;;2.75;;
26319;SDS011;14024;52.226;5.200;2024-01-30T13:16:50;6.97;;;3.47;;
26319;SDS011;14024;52.226;5.200;2024-01-30T13:19:16;11.48;;;3.83;;
26319;SDS011;14024;52.226;5.200;2024-01-30T13:21:41;10.98;;;4.18;;
26319;SDS011;14024;52.226;5.200;2024-01-30T13:24:07;9.13;;;3.95;;
26319;SDS011;14024;52.226;5.200;2024-01-30T13:26:32;9.02;;;3.78;;
26319;SDS011;14024;52.226;5.200;2024-01-30T13:28:58;19.48;;;4.70;;
26319;SDS011;14024;52.226;5.200;2024-01-30T13:31:23;9.75;;;4.15;;
26319;SDS011;14024;52.226;5.200;2024-01-30T13:33:52;11.45;;;4.85;;
26319;SDS011;14024;52.226;5.200;2024-01-30T13:36:17;10.20;;;4.43;;
26319;SDS011;14024;52.226;5.200;2024-01-30T13:38:43;13.18;;;4.40;;
26319;SDS011;14024;52.226;5.200;2024-01-30T13:41:08;12.35;;;4.72;;
26319;SDS011;14024;52.226;5.200;2024-01-30T13:43:35;13.02;;;4.38;;
26319;SDS011;14024;52.226;5.200;2024-01-30T13:46:00;13.27;;;5.70;;
26319;SDS011;14024;52.226;5.200;2024-01-30T13:48:26;14.80;;;5.18;;
26319;SDS011;14024;52.226;5.200;2024-01-30T13:50:51;10.43;;;4.80;;
26319;SDS011;14024;52.226;5.200;2024-01-30T13:53:18;9.73;;;4.88;;
26319;SDS011;14024;52.226;5.200;2024-01-30T13:55:43;12.18;;;6.13;;
26319;SDS011;14024;52.226;5.200;2024-01-30T13:58:08;14.35;;;5.95;;
26319;SDS011;14024;52.226;5.200;2024-01-30T14:00:34;11.98;;;5.35;;
26319;SDS011;14024;52.226;5.200;2024-01-30T14:02:59;10.25;;;5.30;;
26319;SDS011;14024;52.226;5.200;2024-01-30T14:05:26;11.18;;;5.93;;
26319;SDS011;14024;52.226;5.200;2024-01-30T14:07:55;13.57;;;6.72;;
26319;SDS011;14024;52.226;5.200;2024-01-30T14:10:22;12.55;;;7.30;;
26319;SDS011;14024;52.226;5.200;2024-01-30T14:12:48;17.85;;;7.60;;
26319;SDS011;14024;52.226;5.200;2024-01-30T14:15:13;19.55;;;8.20;;
26319;SDS011;14024;52.226;5.200;2024-01-30T14:17:43;11.35;;;8.00;;
26319;SDS011;14024;52.226;5.200;2024-01-30T14:20:10;15.63;;;8.13;;
26319;SDS011;14024;52.226;5.200;2024-01-30T14:22:36;12.88;;;7.97;;
26319;SDS011;14024;52.226;5.200;2024-01-30T14:25:01;13.68;;;7.50;;